Time;durP1;ratioP1;P1;durP2;ratioP2;P2;SDS_P1;SDS_P2;PMS_P1;PMS_P2;Temp;Humidity;BMP_temperature;BMP_pressure;BME280_temperature;BME280_humidity;BME280_pressure;Samples;Min_cycle;Max_cycle;Signal;HPM_P1;HPM_P2
2023/09/28 00:02:17;;;;;;;8.87;7.33;;;;;;;16.90;100.00;100784.38;5064241;28;20289;-79
2023/09/28 00:04:43;;;;;;;7.30;6.60;;;;;;;16.87;98.28;100784.63;5042506;28;20316;-79
2023/09/28 00:07:10;;;;;;;8.13;7.33;;;;;;;16.77;97.78;100791.81;5054889;28;20230;-80
2023/09/28 00:09:35;;;;;;;8.07;7.03;;;;;;;16.69;97.90;100792.47;5042700;28;20211;-79
2023/09/28 00:12:02;;;;;;;8.13;6.90;;;;;;;16.68;98.16;100793.44;5062006;28;20709;-79
2023/09/28 00:14:29;;;;;;;8.00;6.70;;;;;;;16.61;96.83;100794.94;5056887;28;20195;-79
2023/09/28 00:16:57;;;;;;;8.33;7.53;;;;;;;16.50;96.30;100795.84;5052886;28;20209;-79
2023/09/28 00:19:23;;;;;;;8.53;7.63;;;;;;;16.45;97.59;100794.56;5055718;28;20205;-79
2023/09/28 00:21:50;;;;;;;8.83;7.93;;;;;;;16.36;98.81;100785.44;5049452;28;20228;-79
2023/09/28 00:24:16;;;;;;;9.00;7.90;;;;;;;16.32;100.00;100786.69;5054404;28;20290;-79
2023/09/28 00:26:42;;;;;;;8.63;7.83;;;;;;;16.31;100.00;100784.97;5053893;28;20565;-79
2023/09/28 00:29:08;;;;;;;12.10;8.20;;;;;;;16.29;100.00;100784.28;5056837;28;20212;-78
2023/09/28 00:31:35;;;;;;;8.67;7.87;;;;;;;16.26;100.00;100784.53;5057417;28;20755;-79
2023/09/28 00:34:01;;;;;;;10.03;8.57;;;;;;;16.25;100.00;100777.44;5050278;28;20301;-79
2023/09/28 00:36:27;;;;;;;9.93;8.93;;;;;;;16.25;100.00;100780.13;5044089;28;20206;-79
2023/09/28 00:38:53;;;;;;;9.00;7.27;;;;;;;16.24;100.00;100775.75;5049221;28;20208;-79
2023/09/28 00:41:20;;;;;;;9.10;7.60;;;;;;;16.17;100.00;100782.59;5051563;28;20667;-79
2023/09/28 00:43:45;;;;;;;10.40;7.87;;;;;;;16.11;100.00;100780.47;5040548;28;20199;-79
2023/09/28 00:46:16;;;;;;;8.70;7.80;;;;;;;16.07;100.00;100779.84;5047118;28;20735;-79
2023/09/28 00:48:53;;;;;;;10.77;8.70;;;;;;;16.05;100.00;100776.44;5051676;28;20572;-79
2023/09/28 00:51:20;;;;;;;9.60;8.60;;;;;;;16.04;100.00;100772.06;5057491;28;20266;-79
2023/09/28 00:53:45;;;;;;;9.40;8.23;;;;;;;16.05;100.00;100764.84;5058182;28;20211;-79
2023/09/28 00:56:12;;;;;;;9.47;8.47;;;;;;;16.05;100.00;100759.47;5048581;28;20212;-80
2023/09/28 00:58:38;;;;;;;10.50;8.77;;;;;;;16.04;100.00;100745.19;5059814;28;20301;-80
2023/09/28 01:01:06;;;;;;;9.30;8.40;;;;;;;16.04;100.00;100749.69;5050545;28;20229;-80
2023/09/28 01:03:32;;;;;;;12.03;9.40;;;;;;;16.02;100.00;100749.81;5053519;28;20246;-79
2023/09/28 01:05:59;;;;;;;12.50;9.00;;;;;;;16.04;100.00;100744.34;5048216;28;20229;-79
2023/09/28 01:08:25;;;;;;;9.67;8.70;;;;;;;16.01;100.00;100747.28;5051938;28;20201;-79
2023/09/28 01:10:51;;;;;;;12.27;8.83;;;;;;;16.01;100.00;100739.22;5055988;28;20215;-79
2023/09/28 01:13:20;;;;;;;9.10;8.07;;;;;;;16.00;100.00;100735.66;5059261;28;20730;-80
2023/09/28 01:15:48;;;;;;;9.50;8.50;;;;;;;16.04;100.00;100734.44;5053874;28;20906;-80
2023/09/28 01:18:15;;;;;;;11.80;9.17;;;;;;;16.04;100.00;100729.06;5057773;28;20203;-79
2023/09/28 01:20:43;;;;;;;10.63;9.53;;;;;;;16.06;100.00;100739.69;5057829;28;20204;-79
2023/09/28 01:23:10;;;;;;;10.30;9.07;;;;;;;16.05;100.00;100746.03;5049779;28;20241;-79
2023/09/28 01:25:38;;;;;;;10.63;9.20;;;;;;;16.04;100.00;100744.34;5053242;28;20231;-79
2023/09/28 01:28:05;;;;;;;9.80;8.80;;;;;;;16.07;100.00;100738.69;5053035;28;20669;-79
2023/09/28 01:30:32;;;;;;;13.17;8.97;;;;;;;16.06;100.00;100745.06;5043400;28;20617;-79
2023/09/28 01:32:58;;;;;;;12.20;8.93;;;;;;;16.05;100.00;100743.34;5044191;28;20245;-79
2023/09/28 01:35:25;;;;;;;9.57;8.63;;;;;;;16.05;100.00;100741.50;5054834;28;20714;-79
2023/09/28 01:38:10;;;;;;;16.63;9.73;;;;;;;16.02;100.00;100736.41;5052793;28;20677;-79
2023/09/28 01:40:38;;;;;;;9.07;8.17;;;;;;;15.96;100.00;100732.38;5048179;28;20214;-79
2023/09/28 01:43:04;;;;;;;9.27;8.07;;;;;;;15.90;100.00;100732.94;5052726;28;20231;-79
2023/09/28 01:45:31;;;;;;;11.90;8.80;;;;;;;15.85;100.00;100719.03;5054109;28;20229;-79
2023/09/28 01:47:56;;;;;;;12.37;8.80;;;;;;;15.85;100.00;100712.81;5045308;28;20218;-79
2023/09/28 01:50:23;;;;;;;11.30;8.40;;;;;;;15.85;100.00;100705.59;5051969;28;20208;-79
2023/09/28 01:52:48;;;;;;;8.33;7.37;;;;;;;15.83;100.00;100698.66;5052799;28;20232;-79
2023/09/28 01:55:15;;;;;;;11.50;8.30;;;;;;;15.74;100.00;100686.88;5048308;28;20204;-79
2023/09/28 01:57:41;;;;;;;9.67;8.77;;;;;;;15.70;100.00;100692.59;5050565;28;20212;-79
2023/09/28 02:00:14;;;;;;;9.60;8.70;;;;;;;15.67;100.00;100685.66;5052543;28;20324;-80
2023/09/28 02:02:40;;;;;;;10.60;9.07;;;;;;;15.67;100.00;100691.03;5045781;28;20230;-79
2023/09/28 02:05:07;;;;;;;9.83;8.83;;;;;;;15.69;100.00;100713.25;5044522;28;20275;-79
2023/09/28 02:07:34;;;;;;;11.10;10.00;;;;;;;15.71;100.00;100713.97;5055889;28;20234;-79
2023/09/28 02:10:00;;;;;;;11.67;9.60;;;;;;;15.72;100.00;100718.34;5048999;28;20274;-80
2023/09/28 02:12:27;;;;;;;13.33;9.47;;;;;;;15.74;100.00;100716.41;5052068;28;20649;-79
2023/09/28 02:14:55;;;;;;;13.73;9.37;;;;;;;15.81;100.00;100706.81;5051420;28;20515;-79
2023/09/28 02:17:21;;;;;;;10.67;9.60;;;;;;;15.86;100.00;100715.34;5047155;28;20212;-79
2023/09/28 02:19:47;;;;;;;10.53;9.43;;;;;;;15.92;100.00;100712.16;5051068;28;20232;-79
2023/09/28 02:22:13;;;;;;;10.97;9.47;;;;;;;16.01;100.00;100725.78;5050816;28;20281;-80
2023/09/28 02:24:39;;;;;;;11.00;8.70;;;;;;;16.07;100.00;100733.34;5050066;28;20228;-79
2023/09/28 02:27:05;;;;;;;12.73;8.87;;;;;;;16.16;100.00;100740.59;5048492;28;20215;-79
2023/09/28 02:29:31;;;;;;;10.10;8.40;;;;;;;16.20;100.00;100742.91;5050145;28;20221;-79
2023/09/28 02:31:59;;;;;;;9.00;8.07;;;;;;;16.27;100.00;100740.56;5055431;28;20226;-79
2023/09/28 02:34:25;;;;;;;8.13;7.33;;;;;;;16.33;100.00;100737.31;5052299;28;20254;-79
2023/09/28 02:36:52;;;;;;;10.30;8.43;;;;;;;16.37;100.00;100743.28;5045690;28;20210;-80
2023/09/28 02:39:17;;;;;;;9.77;7.73;;;;;;;16.39;100.00;100749.38;5057195;28;20230;-79
2023/09/28 02:41:44;;;;;;;9.70;8.10;;;;;;;16.41;100.00;100752.78;5053607;28;20733;-79
2023/09/28 02:44:09;;;;;;;10.47;7.97;;;;;;;16.42;100.00;100743.75;5059329;28;20219;-79
2023/09/28 02:46:36;;;;;;;8.83;7.20;;;;;;;16.43;100.00;100748.16;5058163;28;20295;-79
2023/09/28 02:49:03;;;;;;;9.17;8.27;;;;;;;16.43;100.00;100742.75;5054191;28;20204;-79
2023/09/28 02:51:29;;;;;;;8.37;7.50;;;;;;;16.44;100.00;100741.78;5059311;28;20249;-79
2023/09/28 02:53:56;;;;;;;9.07;8.17;;;;;;;16.38;100.00;100743.16;5054450;28;20205;-80
2023/09/28 02:56:22;;;;;;;8.90;7.87;;;;;;;16.31;100.00;100741.97;5055894;28;20201;-79
2023/09/28 02:58:48;;;;;;;9.90;9.00;;;;;;;16.23;100.00;100731.88;5053411;28;20215;-80
2023/09/28 03:01:15;;;;;;;9.93;8.80;;;;;;;16.16;100.00;100735.22;5059495;28;20206;-79
2023/09/28 03:03:41;;;;;;;12.03;9.47;;;;;;;16.11;100.00;100740.16;5050880;28;20644;-79
2023/09/28 03:06:08;;;;;;;9.50;8.57;;;;;;;16.07;100.00;100744.94;5054977;28;20312;-79
2023/09/28 03:08:35;;;;;;;11.27;8.70;;;;;;;16.03;100.00;100742.63;5051081;28;20661;-79
2023/09/28 03:11:02;;;;;;;9.60;8.70;;;;;;;15.99;100.00;100739.34;5053989;28;20274;-79
2023/09/28 03:13:28;;;;;;;10.40;9.00;;;;;;;15.94;100.00;100741.59;5054981;28;20238;-79
2023/09/28 03:15:55;;;;;;;10.17;9.13;;;;;;;15.92;100.00;100740.84;5051456;28;20300;-79
2023/09/28 03:18:20;;;;;;;10.13;9.13;;;;;;;15.92;100.00;100747.09;5049563;28;20205;-79
2023/09/28 03:20:48;;;;;;;13.40;9.73;;;;;;;15.91;100.00;100742.69;5049658;28;20264;-79
2023/09/28 03:23:14;;;;;;;10.07;9.07;;;;;;;15.91;100.00;100740.00;5042401;28;20229;-80
2023/09/28 03:25:42;;;;;;;12.00;9.70;;;;;;;15.91;100.00;100742.69;5052449;28;20264;-79
2023/09/28 03:28:08;;;;;;;11.67;10.33;;;;;;;15.91;100.00;100737.31;5052156;28;20206;-79
2023/09/28 03:30:34;;;;;;;11.77;9.63;;;;;;;15.89;100.00;100739.28;5056673;28;20685;-79
2023/09/28 03:33:00;;;;;;;10.40;9.37;;;;;;;15.86;100.00;100736.84;5048064;28;20285;-79
2023/09/28 03:35:27;;;;;;;10.70;9.63;;;;;;;15.81;100.00;100739.06;5057171;28;20198;-79
2023/09/28 03:37:55;;;;;;;12.27;9.10;;;;;;;15.75;100.00;100742.28;5053085;28;20827;-79
2023/09/28 03:40:23;;;;;;;10.77;9.67;;;;;;;15.75;100.00;100742.28;5049391;28;20221;-79
2023/09/28 03:42:50;;;;;;;11.23;9.87;;;;;;;15.73;100.00;100730.81;5056998;28;20248;-79
2023/09/28 03:45:20;;;;;;;11.50;9.77;;;;;;;15.72;100.00;100725.56;5053112;28;20604;-78
2023/09/28 03:47:46;;;;;;;13.23;10.63;;;;;;;15.71;100.00;100727.38;5051474;28;20782;-79
2023/09/28 03:50:13;;;;;;;11.60;10.40;;;;;;;15.70;100.00;100730.19;5050583;28;20206;-79
2023/09/28 03:52:41;;;;;;;12.07;10.57;;;;;;;15.68;100.00;100730.31;5050612;28;20225;-79
2023/09/28 03:55:09;;;;;;;12.20;10.90;;;;;;;15.73;100.00;100714.69;5053710;28;20203;-79
2023/09/28 03:57:37;;;;;;;11.43;10.23;;;;;;;15.73;100.00;100725.44;5053636;28;20687;-78
2023/09/28 04:00:06;;;;;;;13.43;10.37;;;;;;;15.75;100.00;100728.00;5049376;28;20225;-79
2023/09/28 04:02:33;;;;;;;11.63;10.20;;;;;;;15.79;100.00;100716.84;5049407;28;20886;-79
2023/09/28 04:04:59;;;;;;;10.77;9.57;;;;;;;15.83;100.00;100718.28;5061252;28;20240;-77
2023/09/28 04:07:26;;;;;;;13.27;9.97;;;;;;;15.82;100.00;100711.22;5047454;28;20210;-79
2023/09/28 04:09:52;;;;;;;10.03;9.00;;;;;;;15.81;100.00;100714.88;5051726;28;20219;-78
2023/09/28 04:12:19;;;;;;;9.73;8.67;;;;;;;15.87;100.00;100710.84;5051327;28;20240;-79
2023/09/28 04:14:47;;;;;;;10.83;8.23;;;;;;;15.92;100.00;100717.53;5049856;28;20623;-78
2023/09/28 04:17:14;;;;;;;8.57;7.43;;;;;;;16.01;100.00;100723.94;5053705;28;20207;-79
2023/09/28 04:19:40;;;;;;;9.87;8.00;;;;;;;16.07;100.00;100727.97;5053788;28;20219;-79
2023/09/28 04:22:07;;;;;;;11.07;7.63;;;;;;;16.13;100.00;100728.25;5047047;28;20235;-79
2023/09/28 04:24:33;;;;;;;9.80;8.50;;;;;;;16.16;100.00;100722.63;5053150;28;20216;-79
2023/09/28 04:27:00;;;;;;;9.50;8.33;;;;;;;16.23;100.00;100739.09;5047424;28;20232;-79
2023/09/28 04:29:27;;;;;;;9.93;7.57;;;;;;;16.26;100.00;100728.94;5054269;28;20210;-79
2023/09/28 04:31:54;;;;;;;9.17;8.27;;;;;;;16.31;100.00;100739.28;5050908;28;20221;-79
2023/09/28 04:34:21;;;;;;;8.57;7.67;;;;;;;16.33;100.00;100740.00;5054431;28;20286;-79
2023/09/28 04:36:50;;;;;;;7.77;6.90;;;;;;;16.34;100.00;100741.72;5054328;28;20221;-79
2023/09/28 04:39:17;;;;;;;9.43;7.63;;;;;;;16.37;100.00;100733.38;5058577;28;20205;-80
2023/09/28 04:41:43;;;;;;;8.90;7.83;;;;;;;16.37;100.00;100745.97;5056515;28;20339;-79
2023/09/28 04:44:10;;;;;;;10.87;7.60;;;;;;;16.34;100.00;100739.03;5052021;28;20217;-79
2023/09/28 04:46:37;;;;;;;8.87;7.97;;;;;;;16.32;100.00;100744.53;5052504;28;20222;-79
2023/09/28 04:49:05;;;;;;;8.13;7.33;;;;;;;16.31;100.00;100750.03;5053004;28;20715;-78
2023/09/28 04:51:31;;;;;;;8.90;7.97;;;;;;;16.31;100.00;100742.81;5050337;28;20216;-79
2023/09/28 04:54:02;;;;;;;12.87;8.50;;;;;;;16.30;100.00;100740.28;5050690;28;20661;-79
2023/09/28 04:56:30;;;;;;;10.17;7.93;;;;;;;16.30;100.00;100751.03;5049509;28;20226;-78
2023/09/28 04:58:57;;;;;;;8.00;7.20;;;;;;;16.27;100.00;100746.78;5053399;28;20303;-79
2023/09/28 05:01:23;;;;;;;7.60;5.57;;;;;;;16.27;100.00;100754.00;5056445;28;20698;-78
2023/09/28 05:03:50;;;;;;;7.27;6.57;;;;;;;16.29;100.00;100757.41;5052147;28;20203;-79
2023/09/28 05:06:17;;;;;;;6.30;5.70;;;;;;;16.34;100.00;100755.16;5056694;28;20222;-80
2023/09/28 05:08:44;;;;;;;8.13;6.07;;;;;;;16.38;100.00;100764.66;5050557;28;20209;-79
2023/09/28 05:11:10;;;;;;;6.73;5.60;;;;;;;16.42;100.00;100760.72;5050540;28;20208;-79
2023/09/28 05:13:37;;;;;;;7.27;6.13;;;;;;;16.45;100.00;100760.47;5050570;28;20222;-80
2023/09/28 05:16:04;;;;;;;6.70;5.47;;;;;;;16.49;100.00;100761.03;5057508;28;20208;-78
2023/09/28 05:18:30;;;;;;;6.27;5.37;;;;;;;16.53;100.00;100768.72;5058113;28;20207;-79
2023/09/28 05:20:57;;;;;;;6.97;5.67;;;;;;;16.58;99.21;100760.25;5046354;28;20217;-80
2023/09/28 05:23:25;;;;;;;6.10;5.50;;;;;;;16.64;98.71;100759.75;5052528;28;20237;-80
2023/09/28 05:25:51;;;;;;;7.17;5.23;;;;;;;16.71;98.13;100771.69;5058767;28;20220;-80
2023/09/28 05:28:18;;;;;;;5.93;5.33;;;;;;;16.78;97.08;100763.94;5052553;28;20692;-79
2023/09/28 05:30:44;;;;;;;5.57;4.97;;;;;;;16.86;95.58;100766.78;5053869;28;20217;-79
2023/09/28 05:33:11;;;;;;;6.40;5.53;;;;;;;16.91;95.36;100778.84;5054963;28;20255;-79
2023/09/28 05:35:38;;;;;;;6.30;5.23;;;;;;;16.96;94.74;100779.31;5054918;28;20232;-79
2023/09/28 05:38:04;;;;;;;5.13;4.63;;;;;;;17.01;94.32;100778.91;5050664;28;20206;-79
2023/09/28 05:40:32;;;;;;;5.93;5.30;;;;;;;17.06;94.01;100784.72;5055097;28;20808;-79
2023/09/28 05:42:59;;;;;;;7.03;4.93;;;;;;;17.09;93.75;100791.69;5051801;28;20221;-79
2023/09/28 05:45:26;;;;;;;6.23;4.97;;;;;;;17.11;93.05;100787.88;5055853;28;20234;-79
2023/09/28 05:47:52;;;;;;;4.90;4.47;;;;;;;17.14;92.42;100798.38;5058863;28;20643;-78
2023/09/28 05:50:19;;;;;;;6.83;5.20;;;;;;;17.16;92.18;100806.31;5050038;28;20604;-79
2023/09/28 05:52:47;;;;;;;7.90;6.60;;;;;;;17.22;92.85;100797.66;5050235;28;20236;-78
2023/09/28 05:55:14;;;;;;;8.37;6.80;;;;;;;17.22;93.68;100808.44;5052967;28;20547;-79
2023/09/28 05:57:41;;;;;;;7.60;6.73;;;;;;;17.20;94.15;100805.03;5058154;28;20713;-78
2023/09/28 06:00:09;;;;;;;9.40;6.40;;;;;;;17.18;94.53;100807.88;5058242;28;20237;-79
2023/09/28 06:02:36;;;;;;;7.53;6.40;;;;;;;17.17;94.70;100816.94;5056530;28;20262;-79
2023/09/28 06:05:03;;;;;;;7.00;6.33;;;;;;;17.17;95.13;100821.47;5051739;28;20219;-79
2023/09/28 06:07:29;;;;;;;7.00;6.30;;;;;;;17.17;95.51;100832.22;5058432;28;20218;-78
2023/09/28 06:09:56;;;;;;;7.00;6.03;;;;;;;17.17;96.12;100822.31;5052690;28;20213;-79
2023/09/28 06:12:23;;;;;;;7.30;6.20;;;;;;;17.19;96.47;100825.72;5052121;28;20227;-78
2023/09/28 06:14:51;;;;;;;8.93;6.77;;;;;;;17.21;96.98;100823.72;5061011;28;20205;-78
2023/09/28 06:17:18;;;;;;;8.07;6.63;;;;;;;17.22;97.18;100836.22;5057096;28;20635;-79
2023/09/28 06:19:44;;;;;;;9.13;6.90;;;;;;;17.25;97.43;100835.09;5052511;28;20211;-79
2023/09/28 06:22:11;;;;;;;8.50;6.63;;;;;;;17.29;97.72;100833.84;5048502;28;20236;-79
2023/09/28 06:24:38;;;;;;;6.87;6.07;;;;;;;17.32;97.78;100839.81;5052613;28;20217;-78
2023/09/28 06:27:05;;;;;;;7.27;6.10;;;;;;;17.37;97.88;100839.41;5054172;28;20309;-79
2023/09/28 06:29:32;;;;;;;6.53;5.80;;;;;;;17.41;97.85;100839.97;5050478;28;20766;-79
2023/09/28 06:32:00;;;;;;;7.13;5.73;;;;;;;17.46;97.76;100849.34;5049889;28;20224;-80
2023/09/28 06:34:27;;;;;;;7.20;5.53;;;;;;;17.52;97.49;100853.34;5054302;28;20266;-78
2023/09/28 06:36:53;;;;;;;9.03;6.60;;;;;;;17.57;96.72;100851.91;5056751;28;21431;-79
2023/09/28 06:39:20;;;;;;;7.30;6.30;;;;;;;17.67;96.44;100846.59;5053753;28;20207;-78
2023/09/28 06:41:46;;;;;;;10.47;6.70;;;;;;;17.74;96.58;100852.28;5052747;28;20260;-78
2023/09/28 06:44:12;;;;;;;8.40;6.77;;;;;;;17.81;96.30;100859.69;5056889;28;20212;-79
2023/09/28 06:46:39;;;;;;;8.43;6.87;;;;;;;17.86;96.53;100862.81;5053447;28;20228;-78
2023/09/28 06:49:08;;;;;;;7.37;6.37;;;;;;;17.93;96.16;100872.03;5056429;28;20295;-78
2023/09/28 06:51:35;;;;;;;6.80;5.93;;;;;;;17.96;96.00;100874.44;5057254;28;20239;-79
2023/09/28 06:54:02;;;;;;;7.10;5.27;;;;;;;18.01;95.73;100876.75;5055732;28;20207;-80
2023/09/28 06:56:28;;;;;;;7.00;5.40;;;;;;;18.03;95.36;100881.00;5055922;28;20201;-79
2023/09/28 06:58:55;;;;;;;6.27;5.27;;;;;;;18.08;95.68;100874.34;5049297;28;20223;-78
2023/09/28 07:01:22;;;;;;;5.20;4.77;;;;;;;18.13;95.28;100882.84;5061670;28;20204;-79
2023/09/28 07:03:52;;;;;;;6.50;5.43;;;;;;;18.17;95.27;100881.59;5059032;28;20263;-79
2023/09/28 07:06:21;;;;;;;7.13;5.40;;;;;;;18.20;95.22;100884.84;5058173;28;20757;-79
2023/09/28 07:08:47;;;;;;;7.80;5.40;;;;;;;18.25;95.19;100890.69;5052445;28;20217;-79
2023/09/28 07:11:14;;;;;;;7.70;6.30;;;;;;;18.27;95.32;100895.94;5062041;28;20211;-79
2023/09/28 07:13:40;;;;;;;6.10;5.50;;;;;;;18.27;95.50;100898.63;5054263;28;20246;-79
2023/09/28 07:16:07;;;;;;;6.07;5.53;;;;;;;18.32;94.34;100891.81;5052344;28;20204;-80
2023/09/28 07:18:34;;;;;;;5.03;4.63;;;;;;;18.33;93.27;100898.91;5054159;28;20216;-79
2023/09/28 07:21:02;;;;;;;5.20;4.70;;;;;;;18.30;93.11;100903.72;5051067;28;20213;-80
2023/09/28 07:23:30;;;;;;;5.27;4.63;;;;;;;18.29;92.14;100916.34;5051618;28;20219;-79
2023/09/28 07:25:57;;;;;;;6.87;4.60;;;;;;;18.28;91.64;100911.94;5062497;28;20209;-80
2023/09/28 07:28:23;;;;;;;4.93;4.40;;;;;;;18.27;91.14;100909.41;5060581;28;20212;-80
2023/09/28 07:30:50;;;;;;;5.83;4.60;;;;;;;18.26;90.41;100908.56;5054911;28;20207;-80
2023/09/28 07:33:17;;;;;;;5.30;4.50;;;;;;;18.31;89.93;100905.44;5053693;28;20227;-79
2023/09/28 07:35:44;;;;;;;5.23;4.77;;;;;;;18.30;89.70;100904.56;5063679;28;20392;-80
2023/09/28 07:38:10;;;;;;;5.40;4.90;;;;;;;18.35;89.43;100896.06;5057233;28;20680;-79
2023/09/28 07:40:38;;;;;;;5.50;4.50;;;;;;;18.37;89.57;100891.38;5055893;28;20208;-80
2023/09/28 07:43:05;;;;;;;6.70;4.77;;;;;;;18.46;89.87;100895.06;5057543;28;20233;-79
2023/09/28 07:45:32;;;;;;;6.43;5.13;;;;;;;18.53;90.06;100894.38;5054881;28;20825;-80
2023/09/28 07:47:58;;;;;;;5.13;4.63;;;;;;;18.67;89.49;100891.25;5050588;28;20706;-78
2023/09/28 07:50:25;;;;;;;5.33;4.50;;;;;;;18.80;89.68;100899.09;5053677;28;20913;-79
2023/09/28 07:52:51;;;;;;;7.57;5.17;;;;;;;18.94;90.51;100901.34;5052411;28;20222;-79
2023/09/28 07:55:18;;;;;;;7.40;5.93;;;;;;;19.11;89.46;100913.22;5053706;28;20194;-79
2023/09/28 07:57:47;;;;;;;6.87;4.93;;;;;;;19.22;87.97;100906.78;5055438;28;20573;-80
2023/09/28 08:00:17;;;;;;;5.70;4.70;;;;;;;19.30;86.47;100918.56;5059071;28;20605;-79
2023/09/28 08:02:43;;;;;;;5.13;4.40;;;;;;;19.34;84.34;100925.41;5060415;28;20236;-79
2023/09/28 08:05:12;;;;;;;4.90;4.40;;;;;;;19.40;82.19;100923.94;5059014;28;20737;-79
2023/09/28 08:07:39;;;;;;;4.60;3.83;;;;;;;19.44;82.09;100928.06;5053860;28;20312;-80
2023/09/28 08:10:09;;;;;;;6.53;4.20;;;;;;;19.49;81.04;100941.97;5056537;28;20303;-78
2023/09/28 08:12:36;;;;;;;5.13;4.40;;;;;;;19.52;80.09;100939.00;5056875;28;20225;-79
2023/09/28 08:15:04;;;;;;;4.38;3.75;;;;;;;19.60;80.25;100936.41;5056301;28;20212;-79
2023/09/28 08:17:31;;;;;;;6.23;4.20;;;;;;;19.72;80.71;100942.47;5058933;28;20205;-80
2023/09/28 08:19:57;;;;;;;5.00;4.10;;;;;;;19.84;80.39;100946.69;5057322;28;20692;-80
2023/09/28 08:22:24;;;;;;;7.45;4.03;;;;;;;20.01;78.93;100954.00;5059059;28;20876;-79
2023/09/28 08:24:51;;;;;;;6.03;4.00;;;;;;;20.12;78.13;100952.94;5055945;28;20205;-79
2023/09/28 08:27:17;;;;;;;4.80;4.13;;;;;;;20.24;77.32;100951.75;5053341;28;20221;-79
2023/09/28 08:29:43;;;;;;;4.93;3.97;;;;;;;20.38;75.99;100951.25;5059243;28;20218;-80
2023/09/28 08:32:11;;;;;;;7.88;3.75;;;;;;;20.50;75.13;100953.72;5055977;28;20225;-80
2023/09/28 08:34:38;;;;;;;4.82;3.53;;;;;;;20.60;74.60;100952.63;5056885;28;20210;-80
2023/09/28 08:37:04;;;;;;;4.43;3.97;;;;;;;20.72;73.90;100954.13;5057193;28;20200;-80
2023/09/28 08:39:32;;;;;;;5.55;3.85;;;;;;;20.85;73.24;100966.41;5062702;28;20215;-79
2023/09/28 08:42:02;;;;;;;4.25;3.60;;;;;;;20.94;72.28;100958.22;5051078;28;20239;-80
2023/09/28 08:44:31;;;;;;;6.22;4.15;;;;;;;21.05;72.51;100951.69;5053138;28;20212;-80
2023/09/28 08:46:58;;;;;;;4.85;4.35;;;;;;;21.18;72.06;100953.97;5054371;28;20602;-80
2023/09/28 08:49:29;;;;;;;5.45;4.00;;;;;;;21.29;71.08;100951.03;5059484;28;20738;-80
2023/09/28 08:51:55;;;;;;;4.28;3.85;;;;;;;21.39;70.71;100951.78;5053571;28;20222;-78
2023/09/28 08:54:23;;;;;;;4.53;3.90;;;;;;;21.53;70.37;100947.63;5056695;28;20208;-79
2023/09/28 08:56:52;;;;;;;5.03;3.80;;;;;;;21.67;68.98;100952.47;5055814;28;20658;-78
2023/09/28 08:59:20;;;;;;;4.35;3.53;;;;;;;21.77;68.33;100953.19;5054526;28;20252;-79
2023/09/28 09:01:48;;;;;;;3.70;3.28;;;;;;;21.87;68.01;100956.59;5052591;28;20260;-78
2023/09/28 09:04:15;;;;;;;4.30;3.47;;;;;;;21.96;67.31;100958.34;5057085;28;20251;-79
2023/09/28 09:06:43;;;;;;;6.60;3.72;;;;;;;22.04;67.22;100963.81;5055331;28;20271;-80
2023/09/28 09:09:14;;;;;;;3.95;3.65;;;;;;;22.12;66.64;100966.59;5060347;28;20205;-79
2023/09/28 09:11:50;;;;;;;4.47;3.55;;;;;;;22.26;66.70;100973.22;5062418;28;20278;-79
2023/09/28 09:14:16;;;;;;;4.90;3.60;;;;;;;22.36;65.21;100970.41;5056491;28;20211;-78
2023/09/28 09:16:43;;;;;;;5.97;3.85;;;;;;;22.42;65.00;100969.72;5057302;28;20288;-79
2023/09/28 09:19:14;;;;;;;4.30;3.90;;;;;;;22.52;64.57;100973.16;5059189;28;20197;-78
2023/09/28 09:21:44;;;;;;;5.70;3.60;;;;;;;22.61;64.27;100968.56;5063800;28;20259;-79
2023/09/28 09:24:13;;;;;;;5.90;4.22;;;;;;;22.71;63.72;100978.28;5055316;28;20200;-78
2023/09/28 09:26:41;;;;;;;4.43;4.00;;;;;;;22.79;63.40;100975.56;5052839;28;20237;-78
2023/09/28 09:29:08;;;;;;;5.70;3.95;;;;;;;22.85;62.44;100974.91;5056468;28;20612;-79
2023/09/28 09:31:38;;;;;;;5.57;3.47;;;;;;;22.95;63.05;100980.16;5053347;28;20204;-79
2023/09/28 09:34:05;;;;;;;5.03;4.28;;;;;;;23.03;62.33;100974.75;5052490;28;20225;-79
2023/09/28 09:36:32;;;;;;;6.43;4.30;;;;;;;23.12;62.24;100964.72;5051970;28;20221;-79
2023/09/28 09:39:00;;;;;;;4.57;3.63;;;;;;;23.20;61.60;100978.31;5054773;28;20654;-79
2023/09/28 09:41:28;;;;;;;5.10;4.45;;;;;;;23.26;61.43;100972.19;5056429;28;20229;-79
2023/09/28 09:43:54;;;;;;;4.53;3.92;;;;;;;23.31;60.92;100964.34;5054202;28;20205;-79
2023/09/28 09:46:21;;;;;;;5.72;3.60;;;;;;;23.40;61.18;100971.50;5053915;28;20225;-79
2023/09/28 09:48:47;;;;;;;4.22;3.75;;;;;;;23.48;60.66;100960.59;5060258;28;20209;-79
2023/09/28 09:51:15;;;;;;;4.30;3.60;;;;;;;23.59;60.26;100962.13;5058544;28;20677;-79
2023/09/28 09:53:43;;;;;;;11.07;4.00;;;;;;;23.68;60.33;100963.81;5063463;28;20228;-79
2023/09/28 09:56:12;;;;;;;7.70;4.00;;;;;;;23.77;59.01;100967.34;5057878;28;20202;-79
2023/09/28 09:58:43;;;;;;;6.60;3.85;;;;;;;23.81;59.92;100964.13;5063614;28;20588;-79
2023/09/28 10:01:12;;;;;;;3.90;3.40;;;;;;;23.85;59.59;100964.59;5055722;28;20208;-79
2023/09/28 10:03:43;;;;;;;3.70;2.78;;;;;;;23.91;58.89;100961.19;5053131;28;20221;-79
2023/09/28 10:06:10;;;;;;;3.80;3.13;;;;;;;23.95;58.54;100959.81;5057442;28;20201;-79
2023/09/28 10:08:38;;;;;;;5.57;3.53;;;;;;;24.01;58.68;100964.53;5054224;28;20286;-79
2023/09/28 10:11:05;;;;;;;5.22;3.28;;;;;;;24.05;58.03;100952.28;5059216;28;20221;-79
2023/09/28 10:13:34;;;;;;;3.97;3.60;;;;;;;24.15;57.67;100963.81;5062318;28;20221;-79
2023/09/28 10:16:03;;;;;;;5.88;3.50;;;;;;;24.22;57.92;100964.78;5051225;28;20219;-79
2023/09/28 10:18:30;;;;;;;5.78;3.53;;;;;;;24.30;58.21;100971.25;5056030;28;20198;-79
2023/09/28 10:20:58;;;;;;;2.88;2.63;;;;;;;24.39;57.85;100970.16;5056951;28;20201;-79
2023/09/28 10:23:27;;;;;;;3.88;3.20;;;;;;;24.46;57.66;100968.41;5060303;28;21021;-79
2023/09/28 10:25:55;;;;;;;4.00;3.22;;;;;;;24.48;57.01;100969.09;5057926;28;20208;-79
2023/09/28 10:28:21;;;;;;;3.92;3.55;;;;;;;24.51;56.99;100974.19;5063633;28;20226;-79
2023/09/28 10:31:03;;;;;;;5.57;4.22;;;;;;;24.56;56.91;100975.31;5061675;28;20206;-78
2023/09/28 10:33:29;;;;;;;3.70;3.05;;;;;;;24.64;57.32;100981.75;5060543;28;20251;-79
2023/09/28 10:36:12;;;;;;;5.13;3.80;;;;;;;24.70;56.92;100978.31;5059031;28;20251;-79
2023/09/28 10:38:40;;;;;;;3.67;3.35;;;;;;;24.72;56.63;100979.81;5056709;28;20202;-79
2023/09/28 10:41:07;;;;;;;4.97;3.75;;;;;;;24.79;57.04;100979.94;5058399;28;20197;-79
2023/09/28 10:43:36;;;;;;;4.93;3.22;;;;;;;24.80;56.42;100977.03;5052939;28;20221;-79
2023/09/28 10:46:04;;;;;;;5.80;3.85;;;;;;;24.86;56.96;100979.03;5066921;28;20205;-79
2023/09/28 10:48:39;;;;;;;4.82;3.75;;;;;;;24.88;56.16;100974.25;5054492;28;20236;-79
2023/09/28 10:51:10;;;;;;;4.78;3.88;;;;;;;24.86;56.32;100981.78;5053444;28;20203;-78
2023/09/28 10:53:36;;;;;;;4.22;3.13;;;;;;;24.92;56.68;100978.28;5057070;28;20328;-79
2023/09/28 10:56:04;;;;;;;7.10;3.72;;;;;;;24.96;56.59;100980.69;5059694;28;20216;-79
2023/09/28 10:58:31;;;;;;;7.20;3.78;;;;;;;24.98;56.62;100979.47;5060335;28;20213;-79
2023/09/28 11:00:58;;;;;;;4.63;3.80;;;;;;;25.00;56.36;100968.41;5063266;28;20666;-79
2023/09/28 11:03:26;;;;;;;5.25;3.90;;;;;;;24.98;56.39;100963.13;5062003;28;21224;-79
2023/09/28 11:05:53;;;;;;;4.20;3.80;;;;;;;25.04;56.75;100965.13;5061805;28;20572;-79
2023/09/28 11:08:22;;;;;;;4.20;3.75;;;;;;;25.14;56.26;100963.00;5063790;28;20225;-79
2023/09/28 11:10:49;;;;;;;4.72;3.80;;;;;;;25.15;56.53;100952.94;5062786;28;20680;-79
2023/09/28 11:13:15;;;;;;;5.28;3.60;;;;;;;25.16;56.92;100958.19;5065864;28;20216;-79
2023/09/28 11:15:42;;;;;;;5.20;3.47;;;;;;;25.22;56.81;100953.91;5056329;28;20201;-79
2023/09/28 11:18:09;;;;;;;3.78;3.42;;;;;;;25.27;56.16;100960.47;5064846;28;20200;-79
2023/09/28 11:20:37;;;;;;;4.72;3.25;;;;;;;25.27;55.60;100955.03;5054831;28;20735;-79